sensor_id;sensor_type;location;lat;lon;timestamp;P1;durP1;ratioP1;P2;durP2;ratioP2
80101;SDS011;69407;44.966;19.622;2024-01-15T00:00:26;78.28;;;34.10;;
80101;SDS011;69407;44.966;19.622;2024-01-15T00:02:52;86.70;;;36.77;;
80101;SDS011;69407;44.966;19.622;2024-01-15T00:05:17;82.10;;;34.83;;
80101;SDS011;69407;44.966;19.622;2024-01-15T00:07:42;72.70;;;32.40;;
80101;SDS011;69407;44.966;19.622;2024-01-15T00:10:08;68.85;;;33.42;;
80101;SDS011;69407;44.966;19.622;2024-01-15T00:12:33;80.15;;;35.00;;
80101;SDS011;69407;44.966;19.622;2024-01-15T00:14:58;66.75;;;32.22;;
80101;SDS011;69407;44.966;19.622;2024-01-15T00:17:24;71.47;;;35.47;;
80101;SDS011;69407;44.966;19.622;2024-01-15T00:19:49;70.47;;;31.23;;
80101;SDS011;69407;44.966;19.622;2024-01-15T00:22:14;72.32;;;33.85;;
80101;SDS011;69407;44.966;19.622;2024-01-15T00:24:39;79.97;;;35.95;;
80101;SDS011;69407;44.966;19.622;2024-01-15T00:27:05;70.70;;;32.07;;
80101;SDS011;69407;44.966;19.622;2024-01-15T00:29:30;62.57;;;31.53;;
80101;SDS011;69407;44.966;19.622;2024-01-15T00:31:55;66.50;;;30.45;;
80101;SDS011;69407;44.966;19.622;2024-01-15T00:34:21;63.20;;;29.73;;
80101;SDS011;69407;44.966;19.622;2024-01-15T00:36:46;70.57;;;30.87;;
80101;SDS011;69407;44.966;19.622;2024-01-15T00:39:11;69.07;;;32.47;;
80101;SDS011;69407;44.966;19.622;2024-01-15T00:41:36;68.53;;;31.37;;
80101;SDS011;69407;44.966;19.622;2024-01-15T00:44:02;66.67;;;31.10;;
80101;SDS011;69407;44.966;19.622;2024-01-15T00:46:28;61.33;;;29.20;;
80101;SDS011;69407;44.966;19.622;2024-01-15T00:48:53;58.25;;;27.98;;
80101;SDS011;69407;44.966;19.622;2024-01-15T00:51:18;62.50;;;29.00;;
80101;SDS011;69407;44.966;19.622;2024-01-15T00:53:44;105.00;;;42.33;;
80101;SDS011;69407;44.966;19.622;2024-01-15T00:56:09;94.30;;;40.93;;
80101;SDS011;69407;44.966;19.622;2024-01-15T00:58:34;98.72;;;44.17;;
80101;SDS011;69407;44.966;19.622;2024-01-15T01:00:59;99.50;;;44.87;;
80101;SDS011;69407;44.966;19.622;2024-01-15T01:03:25;88.57;;;40.27;;
80101;SDS011;69407;44.966;19.622;2024-01-15T01:05:50;91.55;;;38.53;;
80101;SDS011;69407;44.966;19.622;2024-01-15T01:08:15;85.20;;;37.78;;
80101;SDS011;69407;44.966;19.622;2024-01-15T01:10:41;79.45;;;33.08;;
80101;SDS011;69407;44.966;19.622;2024-01-15T01:13:08;80.70;;;35.28;;
80101;SDS011;69407;44.966;19.622;2024-01-15T01:15:33;79.80;;;38.35;;
80101;SDS011;69407;44.966;19.622;2024-01-15T01:17:58;101.83;;;43.00;;
80101;SDS011;69407;44.966;19.622;2024-01-15T01:20:23;108.03;;;44.83;;
80101;SDS011;69407;44.966;19.622;2024-01-15T01:22:49;99.18;;;41.88;;
80101;SDS011;69407;44.966;19.622;2024-01-15T01:25:14;96.32;;;42.20;;
80101;SDS011;69407;44.966;19.622;2024-01-15T01:27:40;103.97;;;42.20;;
80101;SDS011;69407;44.966;19.622;2024-01-15T01:30:05;103.67;;;41.30;;
80101;SDS011;69407;44.966;19.622;2024-01-15T01:32:31;99.72;;;41.42;;
80101;SDS011;69407;44.966;19.622;2024-01-15T01:34:56;93.75;;;37.92;;
80101;SDS011;69407;44.966;19.622;2024-01-15T01:37:21;90.68;;;35.95;;
80101;SDS011;69407;44.966;19.622;2024-01-15T01:39:46;87.33;;;36.23;;
80101;SDS011;69407;44.966;19.622;2024-01-15T01:42:12;81.50;;;34.20;;
80101;SDS011;69407;44.966;19.622;2024-01-15T01:44:37;83.85;;;34.38;;
80101;SDS011;69407;44.966;19.622;2024-01-15T01:47:03;71.07;;;32.00;;
80101;SDS011;69407;44.966;19.622;2024-01-15T01:49:29;73.50;;;32.42;;
80101;SDS011;69407;44.966;19.622;2024-01-15T01:51:57;64.25;;;28.67;;
80101;SDS011;69407;44.966;19.622;2024-01-15T01:54:23;64.13;;;27.20;;
80101;SDS011;69407;44.966;19.622;2024-01-15T01:56:49;58.55;;;26.20;;
80101;SDS011;69407;44.966;19.622;2024-01-15T01:59:15;58.28;;;24.95;;
80101;SDS011;69407;44.966;19.622;2024-01-15T02:01:41;57.92;;;27.45;;
80101;SDS011;69407;44.966;19.622;2024-01-15T02:04:07;60.70;;;26.50;;
80101;SDS011;69407;44.966;19.622;2024-01-15T02:06:33;55.00;;;24.67;;
80101;SDS011;69407;44.966;19.622;2024-01-15T02:08:58;55.30;;;24.05;;
80101;SDS011;69407;44.966;19.622;2024-01-15T02:11:24;49.40;;;22.30;;
80101;SDS011;69407;44.966;19.622;2024-01-15T02:13:50;53.30;;;24.05;;
80101;SDS011;69407;44.966;19.622;2024-01-15T02:16:16;69.85;;;29.80;;
80101;SDS011;69407;44.966;19.622;2024-01-15T02:18:41;56.30;;;25.10;;
80101;SDS011;69407;44.966;19.622;2024-01-15T02:21:07;56.97;;;24.02;;
80101;SDS011;69407;44.966;19.622;2024-01-15T02:23:32;52.55;;;23.35;;
80101;SDS011;69407;44.966;19.622;2024-01-15T02:25:58;51.63;;;22.43;;
80101;SDS011;69407;44.966;19.622;2024-01-15T02:28:23;53.90;;;22.90;;
80101;SDS011;69407;44.966;19.622;2024-01-15T02:30:48;56.13;;;24.45;;
80101;SDS011;69407;44.966;19.622;2024-01-15T02:33:14;56.40;;;24.60;;
80101;SDS011;69407;44.966;19.622;2024-01-15T02:35:39;57.85;;;24.50;;
80101;SDS011;69407;44.966;19.622;2024-01-15T02:38:05;52.92;;;25.20;;
80101;SDS011;69407;44.966;19.622;2024-01-15T02:40:30;49.75;;;23.00;;
80101;SDS011;69407;44.966;19.622;2024-01-15T02:42:55;49.93;;;22.90;;
80101;SDS011;69407;44.966;19.622;2024-01-15T02:45:21;51.23;;;21.77;;
80101;SDS011;69407;44.966;19.622;2024-01-15T02:47:46;55.78;;;22.40;;
80101;SDS011;69407;44.966;19.622;2024-01-15T02:50:12;49.25;;;22.75;;
80101;SDS011;69407;44.966;19.622;2024-01-15T02:52:37;53.30;;;24.27;;
80101;SDS011;69407;44.966;19.622;2024-01-15T02:55:02;55.63;;;24.63;;
80101;SDS011;69407;44.966;19.622;2024-01-15T02:57:28;57.17;;;24.80;;
80101;SDS011;69407;44.966;19.622;2024-01-15T02:59:53;54.70;;;25.27;;
80101;SDS011;69407;44.966;19.622;2024-01-15T03:02:18;58.97;;;25.53;;
80101;SDS011;69407;44.966;19.622;2024-01-15T03:04:44;53.97;;;24.00;;
80101;SDS011;69407;44.966;19.622;2024-01-15T03:07:09;53.65;;;22.80;;
80101;SDS011;69407;44.966;19.622;2024-01-15T03:09:34;50.13;;;23.13;;
80101;SDS011;69407;44.966;19.622;2024-01-15T03:12:00;52.07;;;25.40;;
80101;SDS011;69407;44.966;19.622;2024-01-15T03:14:25;52.65;;;25.40;;
80101;SDS011;69407;44.966;19.622;2024-01-15T03:16:51;47.70;;;23.33;;
80101;SDS011;69407;44.966;19.622;2024-01-15T03:19:16;51.75;;;22.98;;
80101;SDS011;69407;44.966;19.622;2024-01-15T03:21:42;52.73;;;23.63;;
80101;SDS011;69407;44.966;19.622;2024-01-15T03:24:07;50.77;;;24.27;;
80101;SDS011;69407;44.966;19.622;2024-01-15T03:26:32;47.83;;;21.90;;
80101;SDS011;69407;44.966;19.622;2024-01-15T03:28:57;47.13;;;21.80;;
80101;SDS011;69407;44.966;19.622;2024-01-15T03:31:23;43.00;;;19.30;;
80101;SDS011;69407;44.966;19.622;2024-01-15T03:33:48;43.30;;;19.93;;
80101;SDS011;69407;44.966;19.622;2024-01-15T03:36:13;40.93;;;18.90;;
80101;SDS011;69407;44.966;19.622;2024-01-15T03:38:41;42.47;;;19.77;;
80101;SDS011;69407;44.966;19.622;2024-01-15T03:41:07;39.75;;;18.92;;
80101;SDS011;69407;44.966;19.622;2024-01-15T03:43:32;43.20;;;20.15;;
80101;SDS011;69407;44.966;19.622;2024-01-15T03:45:58;43.70;;;20.77;;
80101;SDS011;69407;44.966;19.622;2024-01-15T03:48:23;41.57;;;19.87;;
80101;SDS011;69407;44.966;19.622;2024-01-15T03:50:48;45.23;;;20.80;;
80101;SDS011;69407;44.966;19.622;2024-01-15T03:53:13;43.33;;;20.97;;
80101;SDS011;69407;44.966;19.622;2024-01-15T03:55:39;41.13;;;19.87;;
80101;SDS011;69407;44.966;19.622;2024-01-15T03:58:04;44.40;;;19.30;;
80101;SDS011;69407;44.966;19.622;2024-01-15T04:00:29;43.57;;;20.10;;
80101;SDS011;69407;44.966;19.622;2024-01-15T04:02:54;46.03;;;20.47;;
80101;SDS011;69407;44.966;19.622;2024-01-15T04:05:20;43.00;;;20.30;;
80101;SDS011;69407;44.966;19.622;2024-01-15T04:07:45;40.05;;;20.23;;
80101;SDS011;69407;44.966;19.622;2024-01-15T04:10:10;39.50;;;19.00;;
80101;SDS011;69407;44.966;19.622;2024-01-15T04:12:36;45.45;;;21.80;;
80101;SDS011;69407;44.966;19.622;2024-01-15T04:15:01;41.03;;;19.63;;
80101;SDS011;69407;44.966;19.622;2024-01-15T04:17:27;47.67;;;20.85;;
80101;SDS011;69407;44.966;19.622;2024-01-15T04:19:52;42.15;;;19.10;;
80101;SDS011;69407;44.966;19.622;2024-01-15T04:22:17;39.10;;;18.30;;
80101;SDS011;69407;44.966;19.622;2024-01-15T04:24:43;39.80;;;19.23;;
80101;SDS011;69407;44.966;19.622;2024-01-15T04:27:08;41.97;;;18.97;;
80101;SDS011;69407;44.966;19.622;2024-01-15T04:29:33;42.28;;;19.13;;
80101;SDS011;69407;44.966;19.622;2024-01-15T04:31:58;39.23;;;17.50;;
80101;SDS011;69407;44.966;19.622;2024-01-15T04:34:24;39.50;;;19.27;;
80101;SDS011;69407;44.966;19.622;2024-01-15T04:36:49;41.73;;;19.70;;
80101;SDS011;69407;44.966;19.622;2024-01-15T04:39:14;43.67;;;19.95;;
80101;SDS011;69407;44.966;19.622;2024-01-15T04:41:40;41.42;;;21.23;;
80101;SDS011;69407;44.966;19.622;2024-01-15T04:44:05;43.08;;;21.40;;
80101;SDS011;69407;44.966;19.622;2024-01-15T04:46:30;43.55;;;19.30;;
80101;SDS011;69407;44.966;19.622;2024-01-15T04:48:56;41.38;;;18.33;;
80101;SDS011;69407;44.966;19.622;2024-01-15T04:51:21;40.75;;;18.92;;
80101;SDS011;69407;44.966;19.622;2024-01-15T04:53:46;44.50;;;21.45;;
80101;SDS011;69407;44.966;19.622;2024-01-15T04:56:12;39.17;;;18.67;;
80101;SDS011;69407;44.966;19.622;2024-01-15T04:58:37;43.65;;;19.02;;
80101;SDS011;69407;44.966;19.622;2024-01-15T05:01:02;38.50;;;19.27;;
80101;SDS011;69407;44.966;19.622;2024-01-15T05:03:28;38.65;;;18.33;;
80101;SDS011;69407;44.966;19.622;2024-01-15T05:05:54;39.15;;;17.02;;
80101;SDS011;69407;44.966;19.622;2024-01-15T05:08:20;40.83;;;17.40;;
80101;SDS011;69407;44.966;19.622;2024-01-15T05:10:45;41.83;;;19.40;;
80101;SDS011;69407;44.966;19.622;2024-01-15T05:13:10;41.22;;;20.45;;
80101;SDS011;69407;44.966;19.622;2024-01-15T05:15:36;48.92;;;22.98;;
80101;SDS011;69407;44.966;19.622;2024-01-15T05:18:01;36.45;;;17.42;;
80101;SDS011;69407;44.966;19.622;2024-01-15T05:20:26;34.95;;;17.55;;
80101;SDS011;69407;44.966;19.622;2024-01-15T05:22:52;36.53;;;18.67;;
80101;SDS011;69407;44.966;19.622;2024-01-15T05:25:17;35.30;;;16.85;;
80101;SDS011;69407;44.966;19.622;2024-01-15T05:27:42;37.13;;;17.40;;
80101;SDS011;69407;44.966;19.622;2024-01-15T05:30:07;38.80;;;17.50;;
80101;SDS011;69407;44.966;19.622;2024-01-15T05:32:33;42.70;;;18.65;;
80101;SDS011;69407;44.966;19.622;2024-01-15T05:34:58;39.83;;;17.67;;
80101;SDS011;69407;44.966;19.622;2024-01-15T05:37:24;38.70;;;17.90;;
80101;SDS011;69407;44.966;19.622;2024-01-15T05:39:49;48.40;;;20.77;;
80101;SDS011;69407;44.966;19.622;2024-01-15T05:42:14;35.40;;;18.00;;
80101;SDS011;69407;44.966;19.622;2024-01-15T05:44:40;33.67;;;16.97;;
80101;SDS011;69407;44.966;19.622;2024-01-15T05:47:05;32.70;;;16.97;;
80101;SDS011;69407;44.966;19.622;2024-01-15T05:49:30;38.30;;;16.90;;
80101;SDS011;69407;44.966;19.622;2024-01-15T05:51:55;39.90;;;17.17;;
80101;SDS011;69407;44.966;19.622;2024-01-15T05:54:21;44.50;;;20.03;;
80101;SDS011;69407;44.966;19.622;2024-01-15T05:56:46;74.50;;;31.03;;
80101;SDS011;69407;44.966;19.622;2024-01-15T05:59:11;66.80;;;29.85;;
80101;SDS011;69407;44.966;19.622;2024-01-15T06:01:37;67.15;;;30.67;;
80101;SDS011;69407;44.966;19.622;2024-01-15T06:04:02;71.20;;;30.90;;
80101;SDS011;69407;44.966;19.622;2024-01-15T06:06:27;92.20;;;35.93;;
80101;SDS011;69407;44.966;19.622;2024-01-15T06:08:52;79.33;;;33.73;;
80101;SDS011;69407;44.966;19.622;2024-01-15T06:11:18;72.63;;;31.92;;
80101;SDS011;69407;44.966;19.622;2024-01-15T06:13:43;63.20;;;29.27;;
80101;SDS011;69407;44.966;19.622;2024-01-15T06:16:15;66.63;;;27.23;;
80101;SDS011;69407;44.966;19.622;2024-01-15T06:18:45;61.90;;;28.42;;
80101;SDS011;69407;44.966;19.622;2024-01-15T06:21:10;68.03;;;29.33;;
80101;SDS011;69407;44.966;19.622;2024-01-15T06:23:37;79.05;;;31.13;;
80101;SDS011;69407;44.966;19.622;2024-01-15T06:26:03;67.57;;;31.63;;
80101;SDS011;69407;44.966;19.622;2024-01-15T06:28:29;76.15;;;32.30;;
80101;SDS011;69407;44.966;19.622;2024-01-15T06:30:54;88.50;;;37.20;;
80101;SDS011;69407;44.966;19.622;2024-01-15T06:33:19;86.53;;;37.13;;
80101;SDS011;69407;44.966;19.622;2024-01-15T06:35:44;79.23;;;35.97;;
80101;SDS011;69407;44.966;19.622;2024-01-15T06:38:10;54.13;;;25.77;;
80101;SDS011;69407;44.966;19.622;2024-01-15T06:40:35;43.43;;;20.27;;
80101;SDS011;69407;44.966;19.622;2024-01-15T06:43:00;44.22;;;19.75;;
80101;SDS011;69407;44.966;19.622;2024-01-15T06:45:26;43.80;;;19.17;;
80101;SDS011;69407;44.966;19.622;2024-01-15T06:47:51;37.30;;;16.93;;
80101;SDS011;69407;44.966;19.622;2024-01-15T06:50:16;37.33;;;16.67;;
80101;SDS011;69407;44.966;19.622;2024-01-15T06:52:42;31.02;;;14.15;;
80101;SDS011;69407;44.966;19.622;2024-01-15T06:55:07;27.85;;;12.52;;
80101;SDS011;69407;44.966;19.622;2024-01-15T06:57:33;33.20;;;16.35;;
80101;SDS011;69407;44.966;19.622;2024-01-15T06:59:58;27.20;;;12.70;;
80101;SDS011;69407;44.966;19.622;2024-01-15T07:02:23;28.03;;;12.80;;
80101;SDS011;69407;44.966;19.622;2024-01-15T07:04:49;30.27;;;13.13;;
80101;SDS011;69407;44.966;19.622;2024-01-15T07:07:14;33.28;;;16.27;;
80101;SDS011;69407;44.966;19.622;2024-01-15T07:09:40;88.63;;;40.20;;
80101;SDS011;69407;44.966;19.622;2024-01-15T07:12:05;56.35;;;24.73;;
80101;SDS011;69407;44.966;19.622;2024-01-15T07:14:30;52.03;;;23.50;;
80101;SDS011;69407;44.966;19.622;2024-01-15T07:16:56;44.37;;;20.70;;
80101;SDS011;69407;44.966;19.622;2024-01-15T07:19:21;40.05;;;18.98;;
80101;SDS011;69407;44.966;19.622;2024-01-15T07:21:47;42.72;;;20.15;;
80101;SDS011;69407;44.966;19.622;2024-01-15T07:24:12;39.23;;;17.30;;
80101;SDS011;69407;44.966;19.622;2024-01-15T07:26:37;40.25;;;20.75;;
80101;SDS011;69407;44.966;19.622;2024-01-15T07:29:02;40.20;;;20.47;;
80101;SDS011;69407;44.966;19.622;2024-01-15T07:31:28;36.45;;;17.25;;
80101;SDS011;69407;44.966;19.622;2024-01-15T07:33:53;32.80;;;16.50;;
80101;SDS011;69407;44.966;19.622;2024-01-15T07:36:19;34.20;;;17.90;;
80101;SDS011;69407;44.966;19.622;2024-01-15T07:38:44;36.17;;;16.20;;
80101;SDS011;69407;44.966;19.622;2024-01-15T07:41:09;40.38;;;17.48;;
80101;SDS011;69407;44.966;19.622;2024-01-15T07:43:34;31.43;;;16.17;;
80101;SDS011;69407;44.966;19.622;2024-01-15T07:46:00;35.00;;;15.77;;
80101;SDS011;69407;44.966;19.622;2024-01-15T07:48:25;29.55;;;15.20;;
80101;SDS011;69407;44.966;19.622;2024-01-15T07:50:51;32.42;;;14.52;;
80101;SDS011;69407;44.966;19.622;2024-01-15T07:53:16;29.47;;;15.40;;
80101;SDS011;69407;44.966;19.622;2024-01-15T07:55:41;41.42;;;18.80;;
80101;SDS011;69407;44.966;19.622;2024-01-15T07:58:07;38.77;;;17.10;;
80101;SDS011;69407;44.966;19.622;2024-01-15T08:00:32;38.43;;;19.50;;
80101;SDS011;69407;44.966;19.622;2024-01-15T08:02:57;42.00;;;21.30;;
80101;SDS011;69407;44.966;19.622;2024-01-15T08:05:23;35.45;;;18.02;;
80101;SDS011;69407;44.966;19.622;2024-01-15T08:07:48;48.47;;;18.95;;
80101;SDS011;69407;44.966;19.622;2024-01-15T08:10:14;41.80;;;19.40;;
80101;SDS011;69407;44.966;19.622;2024-01-15T08:12:39;59.65;;;27.10;;
80101;SDS011;69407;44.966;19.622;2024-01-15T08:15:04;87.73;;;37.73;;
80101;SDS011;69407;44.966;19.622;2024-01-15T08:17:30;95.65;;;45.40;;
80101;SDS011;69407;44.966;19.622;2024-01-15T08:19:57;111.10;;;48.58;;
80101;SDS011;69407;44.966;19.622;2024-01-15T08:22:22;92.25;;;41.38;;
80101;SDS011;69407;44.966;19.622;2024-01-15T08:24:48;119.53;;;48.78;;
80101;SDS011;69407;44.966;19.622;2024-01-15T08:27:13;82.93;;;34.60;;
80101;SDS011;69407;44.966;19.622;2024-01-15T08:29:38;77.20;;;35.65;;
80101;SDS011;69407;44.966;19.622;2024-01-15T08:32:04;81.87;;;31.30;;
80101;SDS011;69407;44.966;19.622;2024-01-15T08:34:29;79.65;;;33.60;;
80101;SDS011;69407;44.966;19.622;2024-01-15T08:36:54;68.00;;;30.97;;
80101;SDS011;69407;44.966;19.622;2024-01-15T08:39:19;62.03;;;26.77;;
80101;SDS011;69407;44.966;19.622;2024-01-15T08:41:45;62.47;;;28.10;;
80101;SDS011;69407;44.966;19.622;2024-01-15T08:44:11;42.90;;;19.13;;
80101;SDS011;69407;44.966;19.622;2024-01-15T08:46:37;44.58;;;19.10;;
80101;SDS011;69407;44.966;19.622;2024-01-15T08:49:02;29.05;;;14.02;;
80101;SDS011;69407;44.966;19.622;2024-01-15T08:51:28;27.52;;;16.00;;
80101;SDS011;69407;44.966;19.622;2024-01-15T08:53:54;31.27;;;16.25;;
80101;SDS011;69407;44.966;19.622;2024-01-15T08:56:20;33.63;;;17.48;;
80101;SDS011;69407;44.966;19.622;2024-01-15T08:58:45;36.67;;;16.23;;
80101;SDS011;69407;44.966;19.622;2024-01-15T09:01:11;37.45;;;17.77;;
80101;SDS011;69407;44.966;19.622;2024-01-15T09:03:36;32.40;;;14.38;;
80101;SDS011;69407;44.966;19.622;2024-01-15T09:06:02;31.55;;;14.77;;
80101;SDS011;69407;44.966;19.622;2024-01-15T09:08:27;31.08;;;12.88;;
80101;SDS011;69407;44.966;19.622;2024-01-15T09:10:53;21.27;;;11.38;;
80101;SDS011;69407;44.966;19.622;2024-01-15T09:13:18;20.58;;;10.50;;
80101;SDS011;69407;44.966;19.622;2024-01-15T09:15:43;21.92;;;11.35;;
80101;SDS011;69407;44.966;19.622;2024-01-15T09:18:09;20.42;;;10.77;;
80101;SDS011;69407;44.966;19.622;2024-01-15T09:20:34;21.33;;;11.30;;
80101;SDS011;69407;44.966;19.622;2024-01-15T09:23:00;25.65;;;11.48;;
80101;SDS011;69407;44.966;19.622;2024-01-15T09:25:25;28.80;;;12.90;;
80101;SDS011;69407;44.966;19.622;2024-01-15T09:27:50;25.23;;;12.83;;
80101;SDS011;69407;44.966;19.622;2024-01-15T09:30:15;34.55;;;17.27;;
80101;SDS011;69407;44.966;19.622;2024-01-15T09:32:41;29.90;;;14.60;;
80101;SDS011;69407;44.966;19.622;2024-01-15T09:35:06;38.45;;;19.17;;
80101;SDS011;69407;44.966;19.622;2024-01-15T09:37:32;30.25;;;15.02;;
80101;SDS011;69407;44.966;19.622;2024-01-15T09:39:57;28.60;;;13.60;;
80101;SDS011;69407;44.966;19.622;2024-01-15T09:42:23;25.63;;;13.63;;
80101;SDS011;69407;44.966;19.622;2024-01-15T09:44:49;27.23;;;13.45;;
80101;SDS011;69407;44.966;19.622;2024-01-15T09:47:15;24.02;;;13.63;;
80101;SDS011;69407;44.966;19.622;2024-01-15T09:49:41;29.75;;;14.88;;
80101;SDS011;69407;44.966;19.622;2024-01-15T09:52:07;34.22;;;18.67;;
80101;SDS011;69407;44.966;19.622;2024-01-15T09:54:33;33.53;;;16.60;;
80101;SDS011;69407;44.966;19.622;2024-01-15T09:56:58;35.13;;;19.45;;
80101;SDS011;69407;44.966;19.622;2024-01-15T09:59:24;40.85;;;21.67;;
80101;SDS011;69407;44.966;19.622;2024-01-15T10:01:50;44.22;;;25.25;;
80101;SDS011;69407;44.966;19.622;2024-01-15T10:04:15;47.67;;;25.27;;
80101;SDS011;69407;44.966;19.622;2024-01-15T10:06:44;57.08;;;29.50;;
80101;SDS011;69407;44.966;19.622;2024-01-15T10:09:13;63.28;;;34.92;;
80101;SDS011;69407;44.966;19.622;2024-01-15T10:11:41;32.90;;;17.70;;
80101;SDS011;69407;44.966;19.622;2024-01-15T10:14:07;25.63;;;13.57;;
80101;SDS011;69407;44.966;19.622;2024-01-15T10:16:33;22.55;;;11.85;;
80101;SDS011;69407;44.966;19.622;2024-01-15T10:18:58;25.37;;;11.60;;
80101;SDS011;69407;44.966;19.622;2024-01-15T10:21:24;38.63;;;17.90;;
80101;SDS011;69407;44.966;19.622;2024-01-15T10:23:51;31.30;;;15.40;;
80101;SDS011;69407;44.966;19.622;2024-01-15T10:26:16;34.22;;;16.20;;
80101;SDS011;69407;44.966;19.622;2024-01-15T10:28:42;32.72;;;16.05;;
80101;SDS011;69407;44.966;19.622;2024-01-15T10:31:07;49.80;;;27.10;;
80101;SDS011;69407;44.966;19.622;2024-01-15T10:33:33;52.85;;;26.20;;
80101;SDS011;69407;44.966;19.622;2024-01-15T10:35:59;73.38;;;30.02;;
80101;SDS011;69407;44.966;19.622;2024-01-15T10:38:25;86.55;;;35.20;;
80101;SDS011;69407;44.966;19.622;2024-01-15T10:40:53;70.22;;;31.92;;
80101;SDS011;69407;44.966;19.622;2024-01-15T10:43:18;43.28;;;20.50;;
80101;SDS011;69407;44.966;19.622;2024-01-15T10:45:47;47.42;;;22.65;;
80101;SDS011;69407;44.966;19.622;2024-01-15T10:48:13;33.05;;;17.70;;
80101;SDS011;69407;44.966;19.622;2024-01-15T10:50:39;35.28;;;20.52;;
80101;SDS011;69407;44.966;19.622;2024-01-15T10:53:04;48.63;;;25.42;;
80101;SDS011;69407;44.966;19.622;2024-01-15T10:55:30;44.15;;;24.75;;
80101;SDS011;69407;44.966;19.622;2024-01-15T10:57:57;34.75;;;17.83;;
80101;SDS011;69407;44.966;19.622;2024-01-15T11:00:22;30.27;;;17.35;;
80101;SDS011;69407;44.966;19.622;2024-01-15T11:02:50;47.25;;;27.80;;
80101;SDS011;69407;44.966;19.622;2024-01-15T11:05:16;41.33;;;25.08;;
80101;SDS011;69407;44.966;19.622;2024-01-15T11:07:43;44.88;;;25.00;;
80101;SDS011;69407;44.966;19.622;2024-01-15T11:10:14;58.45;;;29.88;;
80101;SDS011;69407;44.966;19.622;2024-01-15T11:12:54;40.85;;;21.63;;
80101;SDS011;69407;44.966;19.622;2024-01-15T11:15:20;40.40;;;22.92;;
80101;SDS011;69407;44.966;19.622;2024-01-15T11:17:58;35.55;;;19.38;;
80101;SDS011;69407;44.966;19.622;2024-01-15T11:20:24;32.08;;;18.25;;
80101;SDS011;69407;44.966;19.622;2024-01-15T11:22:50;36.43;;;19.33;;
80101;SDS011;69407;44.966;19.622;2024-01-15T11:25:16;39.17;;;21.30;;
80101;SDS011;69407;44.966;19.622;2024-01-15T11:27:43;47.30;;;24.13;;
80101;SDS011;69407;44.966;19.622;2024-01-15T11:30:09;58.33;;;29.63;;
80101;SDS011;69407;44.966;19.622;2024-01-15T11:32:38;54.08;;;26.55;;
80101;SDS011;69407;44.966;19.622;2024-01-15T11:40:24;43.65;;;20.35;;
80101;SDS011;69407;44.966;19.622;2024-01-15T11:43:02;42.50;;;23.23;;
80101;SDS011;69407;44.966;19.622;2024-01-15T11:45:28;39.72;;;21.23;;
80101;SDS011;69407;44.966;19.622;2024-01-15T11:48:17;40.17;;;20.60;;
80101;SDS011;69407;44.966;19.622;2024-01-15T11:50:45;43.25;;;21.65;;
80101;SDS011;69407;44.966;19.622;2024-01-15T11:55:48;50.50;;;25.05;;
80101;SDS011;69407;44.966;19.622;2024-01-15T11:58:16;45.75;;;24.90;;
80101;SDS011;69407;44.966;19.622;2024-01-15T12:00:42;35.22;;;19.10;;
80101;SDS011;69407;44.966;19.622;2024-01-15T12:03:08;34.33;;;20.00;;
80101;SDS011;69407;44.966;19.622;2024-01-15T12:05:36;32.13;;;15.60;;
80101;SDS011;69407;44.966;19.622;2024-01-15T12:08:01;32.75;;;16.50;;
80101;SDS011;69407;44.966;19.622;2024-01-15T12:10:27;38.80;;;22.25;;
80101;SDS011;69407;44.966;19.622;2024-01-15T12:12:59;32.47;;;19.17;;
80101;SDS011;69407;44.966;19.622;2024-01-15T12:15:25;30.10;;;16.17;;
80101;SDS011;69407;44.966;19.622;2024-01-15T12:17:51;38.10;;;19.48;;
80101;SDS011;69407;44.966;19.622;2024-01-15T12:20:17;38.70;;;21.60;;
80101;SDS011;69407;44.966;19.622;2024-01-15T12:22:42;47.05;;;27.27;;
80101;SDS011;69407;44.966;19.622;2024-01-15T12:25:08;38.72;;;22.92;;
80101;SDS011;69407;44.966;19.622;2024-01-15T12:27:34;36.17;;;19.00;;
80101;SDS011;69407;44.966;19.622;2024-01-15T12:29:59;40.92;;;22.42;;
80101;SDS011;69407;44.966;19.622;2024-01-15T12:32:24;65.37;;;34.73;;
80101;SDS011;69407;44.966;19.622;2024-01-15T12:34:50;48.88;;;24.70;;
80101;SDS011;69407;44.966;19.622;2024-01-15T12:37:17;40.47;;;21.02;;
80101;SDS011;69407;44.966;19.622;2024-01-15T12:39:43;45.28;;;21.55;;
80101;SDS011;69407;44.966;19.622;2024-01-15T12:42:09;49.58;;;25.40;;
80101;SDS011;69407;44.966;19.622;2024-01-15T12:44:35;61.60;;;35.78;;
80101;SDS011;69407;44.966;19.622;2024-01-15T12:47:01;56.78;;;28.13;;
80101;SDS011;69407;44.966;19.622;2024-01-15T12:49:26;81.28;;;41.10;;
80101;SDS011;69407;44.966;19.622;2024-01-15T12:51:52;81.97;;;40.65;;
80101;SDS011;69407;44.966;19.622;2024-01-15T12:54:17;40.25;;;22.70;;
80101;SDS011;69407;44.966;19.622;2024-01-15T12:56:42;44.97;;;24.73;;
80101;SDS011;69407;44.966;19.622;2024-01-15T12:59:08;43.73;;;22.57;;
80101;SDS011;69407;44.966;19.622;2024-01-15T13:01:33;110.93;;;45.40;;
80101;SDS011;69407;44.966;19.622;2024-01-15T13:04:01;82.10;;;39.35;;
80101;SDS011;69407;44.966;19.622;2024-01-15T13:06:26;59.15;;;27.23;;
80101;SDS011;69407;44.966;19.622;2024-01-15T13:08:51;62.53;;;27.47;;
80101;SDS011;69407;44.966;19.622;2024-01-15T13:11:16;56.40;;;28.60;;
80101;SDS011;69407;44.966;19.622;2024-01-15T13:13:43;67.97;;;29.88;;
80101;SDS011;69407;44.966;19.622;2024-01-15T13:16:08;71.25;;;34.78;;
80101;SDS011;69407;44.966;19.622;2024-01-15T13:18:34;61.03;;;29.05;;
80101;SDS011;69407;44.966;19.622;2024-01-15T13:20:59;64.35;;;30.50;;
80101;SDS011;69407;44.966;19.622;2024-01-15T13:23:25;65.32;;;32.47;;
80101;SDS011;69407;44.966;19.622;2024-01-15T13:25:50;73.30;;;34.90;;
80101;SDS011;69407;44.966;19.622;2024-01-15T13:28:16;76.38;;;38.65;;
80101;SDS011;69407;44.966;19.622;2024-01-15T13:30:41;101.82;;;46.70;;
80101;SDS011;69407;44.966;19.622;2024-01-15T13:33:07;108.03;;;49.72;;
80101;SDS011;69407;44.966;19.622;2024-01-15T13:35:33;143.73;;;67.38;;
80101;SDS011;69407;44.966;19.622;2024-01-15T13:38:01;186.50;;;81.85;;
80101;SDS011;69407;44.966;19.622;2024-01-15T13:40:26;136.38;;;64.72;;
80101;SDS011;69407;44.966;19.622;2024-01-15T13:42:52;131.77;;;60.78;;
80101;SDS011;69407;44.966;19.622;2024-01-15T13:45:17;141.52;;;67.53;;
80101;SDS011;69407;44.966;19.622;2024-01-15T13:47:43;166.85;;;76.57;;
80101;SDS011;69407;44.966;19.622;2024-01-15T13:50:09;153.38;;;73.18;;
80101;SDS011;69407;44.966;19.622;2024-01-15T13:52:34;225.45;;;86.50;;
80101;SDS011;69407;44.966;19.622;2024-01-15T13:54:59;129.32;;;52.20;;
80101;SDS011;69407;44.966;19.622;2024-01-15T13:57:25;88.65;;;37.90;;
80101;SDS011;69407;44.966;19.622;2024-01-15T13:59:50;43.80;;;21.35;;
80101;SDS011;69407;44.966;19.622;2024-01-15T14:02:15;43.08;;;19.42;;
80101;SDS011;69407;44.966;19.622;2024-01-15T14:04:41;50.40;;;21.17;;
80101;SDS011;69407;44.966;19.622;2024-01-15T14:07:06;50.88;;;22.50;;